sensor_id;sensor_type;location;lat;lon;timestamp;P1;durP1;ratioP1;P2;durP2;ratioP2
20527;SDS011;23612;50.894;10.700;2022-10-22T00:01:55;12.82;;;8.32;;
20527;SDS011;23612;50.894;10.700;2022-10-22T00:04:20;12.63;;;7.47;;
20527;SDS011;23612;50.894;10.700;2022-10-22T00:06:46;12.80;;;7.47;;
20527;SDS011;23612;50.894;10.700;2022-10-22T00:09:11;10.13;;;5.72;;
20527;SDS011;23612;50.894;10.700;2022-10-22T00:11:38;8.68;;;5.00;;
20527;SDS011;23612;50.894;10.700;2022-10-22T00:14:04;4.53;;;4.10;;
20527;SDS011;23612;50.894;10.700;2022-10-22T00:16:30;4.97;;;4.47;;
20527;SDS011;23612;50.894;10.700;2022-10-22T00:18:55;13.13;;;4.20;;
20527;SDS011;23612;50.894;10.700;2022-10-22T00:21:21;10.85;;;4.75;;
20527;SDS011;23612;50.894;10.700;2022-10-22T00:23:46;4.78;;;4.32;;
20527;SDS011;23612;50.894;10.700;2022-10-22T00:26:12;8.55;;;4.43;;
20527;SDS011;23612;50.894;10.700;2022-10-22T00:28:38;7.10;;;4.40;;
20527;SDS011;23612;50.894;10.700;2022-10-22T00:31:03;10.48;;;4.50;;
20527;SDS011;23612;50.894;10.700;2022-10-22T00:33:30;7.10;;;4.22;;
20527;SDS011;23612;50.894;10.700;2022-10-22T00:35:55;7.53;;;4.80;;
20527;SDS011;23612;50.894;10.700;2022-10-22T00:38:21;7.00;;;5.43;;
20527;SDS011;23612;50.894;10.700;2022-10-22T00:40:47;9.32;;;5.50;;
20527;SDS011;23612;50.894;10.700;2022-10-22T00:43:14;7.88;;;4.68;;
20527;SDS011;23612;50.894;10.700;2022-10-22T00:45:41;6.65;;;4.43;;
20527;SDS011;23612;50.894;10.700;2022-10-22T00:48:10;5.00;;;4.50;;
20527;SDS011;23612;50.894;10.700;2022-10-22T00:50:53;6.35;;;4.72;;
20527;SDS011;23612;50.894;10.700;2022-10-22T00:53:40;10.93;;;4.53;;
20527;SDS011;23612;50.894;10.700;2022-10-22T00:56:10;9.02;;;5.45;;
20527;SDS011;23612;50.894;10.700;2022-10-22T00:58:38;7.43;;;5.90;;
20527;SDS011;23612;50.894;10.700;2022-10-22T01:01:08;8.27;;;5.57;;
20527;SDS011;23612;50.894;10.700;2022-10-22T01:03:38;8.55;;;5.13;;
20527;SDS011;23612;50.894;10.700;2022-10-22T01:06:04;6.57;;;4.85;;
20527;SDS011;23612;50.894;10.700;2022-10-22T01:14:23;6.60;;;4.78;;
20527;SDS011;23612;50.894;10.700;2022-10-22T01:22:27;6.03;;;4.50;;
20527;SDS011;23612;50.894;10.700;2022-10-22T01:27:25;5.45;;;4.43;;
20527;SDS011;23612;50.894;10.700;2022-10-22T01:30:12;5.57;;;4.43;;
20527;SDS011;23612;50.894;10.700;2022-10-22T01:32:43;7.03;;;4.45;;
20527;SDS011;23612;50.894;10.700;2022-10-22T01:35:22;6.18;;;4.00;;
20527;SDS011;23612;50.894;10.700;2022-10-22T01:38:01;5.80;;;4.32;;
20527;SDS011;23612;50.894;10.700;2022-10-22T01:40:29;4.05;;;3.65;;
20527;SDS011;23612;50.894;10.700;2022-10-22T01:45:23;6.68;;;3.70;;
20527;SDS011;23612;50.894;10.700;2022-10-22T01:47:56;4.25;;;3.85;;
20527;SDS011;23612;50.894;10.700;2022-10-22T01:53:21;5.68;;;3.97;;
20527;SDS011;23612;50.894;10.700;2022-10-22T01:58:49;7.72;;;5.10;;
20527;SDS011;23612;50.894;10.700;2022-10-22T02:04:10;6.95;;;5.18;;
20527;SDS011;23612;50.894;10.700;2022-10-22T02:06:41;6.00;;;4.80;;
20527;SDS011;23612;50.894;10.700;2022-10-22T02:09:10;8.95;;;5.78;;
20527;SDS011;23612;50.894;10.700;2022-10-22T02:11:39;10.10;;;4.85;;
20527;SDS011;23612;50.894;10.700;2022-10-22T02:14:06;9.15;;;5.15;;
20527;SDS011;23612;50.894;10.700;2022-10-22T02:16:38;7.55;;;5.18;;
20527;SDS011;23612;50.894;10.700;2022-10-22T02:19:12;5.47;;;4.97;;
20527;SDS011;23612;50.894;10.700;2022-10-22T02:21:50;9.50;;;5.80;;
20527;SDS011;23612;50.894;10.700;2022-10-22T02:24:18;8.55;;;4.93;;
20527;SDS011;23612;50.894;10.700;2022-10-22T02:26:52;6.32;;;4.45;;
20527;SDS011;23612;50.894;10.700;2022-10-22T02:29:25;6.22;;;4.68;;
20527;SDS011;23612;50.894;10.700;2022-10-22T02:31:54;9.85;;;5.65;;
20527;SDS011;23612;50.894;10.700;2022-10-22T02:34:23;8.15;;;5.53;;
20527;SDS011;23612;50.894;10.700;2022-10-22T02:36:52;7.78;;;5.60;;
20527;SDS011;23612;50.894;10.700;2022-10-22T02:39:19;8.75;;;6.30;;
20527;SDS011;23612;50.894;10.700;2022-10-22T02:41:45;11.27;;;6.22;;
20527;SDS011;23612;50.894;10.700;2022-10-22T02:44:11;14.68;;;6.20;;
20527;SDS011;23612;50.894;10.700;2022-10-22T02:46:38;11.75;;;7.10;;
20527;SDS011;23612;50.894;10.700;2022-10-22T02:49:04;12.02;;;6.80;;
20527;SDS011;23612;50.894;10.700;2022-10-22T02:51:29;8.25;;;5.53;;
20527;SDS011;23612;50.894;10.700;2022-10-22T02:53:55;7.63;;;5.00;;
20527;SDS011;23612;50.894;10.700;2022-10-22T02:56:21;10.02;;;5.03;;
20527;SDS011;23612;50.894;10.700;2022-10-22T02:58:46;6.30;;;5.30;;
20527;SDS011;23612;50.894;10.700;2022-10-22T03:01:12;6.80;;;4.78;;
20527;SDS011;23612;50.894;10.700;2022-10-22T03:03:37;5.93;;;4.47;;
20527;SDS011;23612;50.894;10.700;2022-10-22T03:06:03;6.88;;;4.20;;
20527;SDS011;23612;50.894;10.700;2022-10-22T03:08:29;12.65;;;4.65;;
20527;SDS011;23612;50.894;10.700;2022-10-22T03:10:54;8.32;;;4.30;;
20527;SDS011;23612;50.894;10.700;2022-10-22T03:13:20;6.82;;;4.50;;
20527;SDS011;23612;50.894;10.700;2022-10-22T03:15:47;5.25;;;4.75;;
20527;SDS011;23612;50.894;10.700;2022-10-22T03:18:13;7.70;;;5.38;;
20527;SDS011;23612;50.894;10.700;2022-10-22T03:20:39;7.63;;;5.68;;
20527;SDS011;23612;50.894;10.700;2022-10-22T03:23:04;9.55;;;5.68;;
20527;SDS011;23612;50.894;10.700;2022-10-22T03:25:30;9.98;;;5.93;;
20527;SDS011;23612;50.894;10.700;2022-10-22T03:27:59;11.73;;;5.60;;
20527;SDS011;23612;50.894;10.700;2022-10-22T03:30:28;10.45;;;5.68;;
20527;SDS011;23612;50.894;10.700;2022-10-22T03:32:53;6.93;;;5.32;;
20527;SDS011;23612;50.894;10.700;2022-10-22T03:35:19;10.27;;;5.97;;
20527;SDS011;23612;50.894;10.700;2022-10-22T03:37:44;8.07;;;6.30;;
20527;SDS011;23612;50.894;10.700;2022-10-22T03:40:10;7.00;;;6.20;;
20527;SDS011;23612;50.894;10.700;2022-10-22T03:42:38;9.60;;;6.53;;
20527;SDS011;23612;50.894;10.700;2022-10-22T03:45:05;9.75;;;6.28;;
20527;SDS011;23612;50.894;10.700;2022-10-22T03:47:31;11.65;;;7.10;;
20527;SDS011;23612;50.894;10.700;2022-10-22T03:49:56;9.93;;;6.22;;
20527;SDS011;23612;50.894;10.700;2022-10-22T03:52:22;9.38;;;6.15;;
20527;SDS011;23612;50.894;10.700;2022-10-22T03:54:47;7.22;;;6.22;;
20527;SDS011;23612;50.894;10.700;2022-10-22T03:57:13;7.20;;;6.25;;
20527;SDS011;23612;50.894;10.700;2022-10-22T03:59:40;9.60;;;6.68;;
20527;SDS011;23612;50.894;10.700;2022-10-22T04:02:07;6.57;;;5.82;;
20527;SDS011;23612;50.894;10.700;2022-10-22T04:04:33;7.10;;;5.95;;
20527;SDS011;23612;50.894;10.700;2022-10-22T04:06:59;10.77;;;5.40;;
20527;SDS011;23612;50.894;10.700;2022-10-22T04:09:24;8.95;;;6.20;;
20527;SDS011;23612;50.894;10.700;2022-10-22T04:11:50;11.68;;;6.70;;
20527;SDS011;23612;50.894;10.700;2022-10-22T04:14:15;10.50;;;6.88;;
20527;SDS011;23612;50.894;10.700;2022-10-22T04:16:41;8.63;;;6.78;;
20527;SDS011;23612;50.894;10.700;2022-10-22T04:19:07;10.18;;;7.05;;
20527;SDS011;23612;50.894;10.700;2022-10-22T04:21:33;8.48;;;6.30;;
20527;SDS011;23612;50.894;10.700;2022-10-22T04:23:59;10.50;;;5.90;;
20527;SDS011;23612;50.894;10.700;2022-10-22T04:26:24;7.13;;;4.82;;
20527;SDS011;23612;50.894;10.700;2022-10-22T04:28:50;9.52;;;5.43;;
20527;SDS011;23612;50.894;10.700;2022-10-22T04:31:18;7.10;;;5.55;;
20527;SDS011;23612;50.894;10.700;2022-10-22T04:33:45;6.47;;;5.47;;
20527;SDS011;23612;50.894;10.700;2022-10-22T04:36:12;7.95;;;6.13;;
20527;SDS011;23612;50.894;10.700;2022-10-22T04:38:42;6.63;;;5.80;;
20527;SDS011;23612;50.894;10.700;2022-10-22T04:43:34;6.20;;;4.18;;
20527;SDS011;23612;50.894;10.700;2022-10-22T04:46:00;4.22;;;3.40;;
20527;SDS011;23612;50.894;10.700;2022-10-22T04:48:25;5.07;;;3.20;;
20527;SDS011;23612;50.894;10.700;2022-10-22T04:50:51;7.68;;;2.53;;
20527;SDS011;23612;50.894;10.700;2022-10-22T04:53:16;2.83;;;2.45;;
20527;SDS011;23612;50.894;10.700;2022-10-22T04:55:42;4.30;;;2.20;;
20527;SDS011;23612;50.894;10.700;2022-10-22T04:58:07;3.30;;;1.90;;
20527;SDS011;23612;50.894;10.700;2022-10-22T05:00:33;4.53;;;1.70;;
20527;SDS011;23612;50.894;10.700;2022-10-22T05:02:58;3.58;;;1.88;;
20527;SDS011;23612;50.894;10.700;2022-10-22T05:05:24;2.47;;;1.73;;
20527;SDS011;23612;50.894;10.700;2022-10-22T05:07:50;5.53;;;1.60;;
20527;SDS011;23612;50.894;10.700;2022-10-22T05:10:16;2.60;;;2.08;;
20527;SDS011;23612;50.894;10.700;2022-10-22T05:12:41;7.45;;;2.10;;
20527;SDS011;23612;50.894;10.700;2022-10-22T05:15:07;4.88;;;1.70;;
20527;SDS011;23612;50.894;10.700;2022-10-22T05:17:35;4.18;;;1.60;;
20527;SDS011;23612;50.894;10.700;2022-10-22T05:20:01;5.15;;;1.58;;
20527;SDS011;23612;50.894;10.700;2022-10-22T05:22:32;5.78;;;1.67;;
20527;SDS011;23612;50.894;10.700;2022-10-22T05:24:58;5.38;;;2.50;;
20527;SDS011;23612;50.894;10.700;2022-10-22T05:27:24;2.25;;;1.60;;
20527;SDS011;23612;50.894;10.700;2022-10-22T05:29:49;1.30;;;1.20;;
20527;SDS011;23612;50.894;10.700;2022-10-22T05:32:15;3.65;;;2.28;;
20527;SDS011;23612;50.894;10.700;2022-10-22T05:34:41;5.85;;;2.80;;
20527;SDS011;23612;50.894;10.700;2022-10-22T05:37:06;6.85;;;2.60;;
20527;SDS011;23612;50.894;10.700;2022-10-22T05:39:32;2.45;;;1.70;;
20527;SDS011;23612;50.894;10.700;2022-10-22T05:42:00;3.10;;;1.52;;
20527;SDS011;23612;50.894;10.700;2022-10-22T05:44:27;2.28;;;1.42;;
20527;SDS011;23612;50.894;10.700;2022-10-22T05:46:52;1.85;;;1.40;;
20527;SDS011;23612;50.894;10.700;2022-10-22T05:49:18;4.45;;;1.90;;
20527;SDS011;23612;50.894;10.700;2022-10-22T05:51:43;3.30;;;1.70;;
20527;SDS011;23612;50.894;10.700;2022-10-22T05:54:15;3.78;;;1.50;;
20527;SDS011;23612;50.894;10.700;2022-10-22T05:56:44;3.92;;;1.15;;
20527;SDS011;23612;50.894;10.700;2022-10-22T05:59:10;1.92;;;1.10;;
20527;SDS011;23612;50.894;10.700;2022-10-22T06:01:37;3.20;;;1.00;;
20527;SDS011;23612;50.894;10.700;2022-10-22T06:04:04;1.67;;;1.20;;
20527;SDS011;23612;50.894;10.700;2022-10-22T06:09:18;2.33;;;0.80;;
20527;SDS011;23612;50.894;10.700;2022-10-22T06:11:53;1.45;;;0.90;;
20527;SDS011;23612;50.894;10.700;2022-10-22T06:14:19;2.45;;;1.17;;
20527;SDS011;23612;50.894;10.700;2022-10-22T06:16:45;1.73;;;1.10;;
20527;SDS011;23612;50.894;10.700;2022-10-22T06:19:12;1.20;;;1.10;;
20527;SDS011;23612;50.894;10.700;2022-10-22T06:21:39;1.85;;;0.90;;
20527;SDS011;23612;50.894;10.700;2022-10-22T06:24:05;1.50;;;0.90;;
20527;SDS011;23612;50.894;10.700;2022-10-22T06:26:31;1.67;;;0.90;;
20527;SDS011;23612;50.894;10.700;2022-10-22T06:28:56;4.38;;;1.02;;
20527;SDS011;23612;50.894;10.700;2022-10-22T06:31:23;3.22;;;1.20;;
20527;SDS011;23612;50.894;10.700;2022-10-22T06:33:50;3.85;;;1.20;;
20527;SDS011;23612;50.894;10.700;2022-10-22T06:36:19;1.15;;;1.08;;
20527;SDS011;23612;50.894;10.700;2022-10-22T06:38:49;3.20;;;1.02;;
20527;SDS011;23612;50.894;10.700;2022-10-22T06:41:16;0.80;;;0.80;;
20527;SDS011;23612;50.894;10.700;2022-10-22T06:43:42;2.17;;;0.85;;
20527;SDS011;23612;50.894;10.700;2022-10-22T06:46:12;0.88;;;0.70;;
20527;SDS011;23612;50.894;10.700;2022-10-22T06:48:42;3.95;;;0.80;;
20527;SDS011;23612;50.894;10.700;2022-10-22T06:51:12;5.07;;;0.73;;
20527;SDS011;23612;50.894;10.700;2022-10-22T06:53:39;0.85;;;0.85;;
20527;SDS011;23612;50.894;10.700;2022-10-22T06:56:05;1.30;;;0.70;;
20527;SDS011;23612;50.894;10.700;2022-10-22T06:58:32;1.58;;;0.80;;
20527;SDS011;23612;50.894;10.700;2022-10-22T07:01:01;10.52;;;5.97;;
20527;SDS011;23612;50.894;10.700;2022-10-22T07:03:31;4.88;;;1.10;;
20527;SDS011;23612;50.894;10.700;2022-10-22T07:06:00;2.10;;;1.38;;
20527;SDS011;23612;50.894;10.700;2022-10-22T07:08:27;1.65;;;1.02;;
20527;SDS011;23612;50.894;10.700;2022-10-22T07:10:53;4.38;;;3.97;;
20527;SDS011;23612;50.894;10.700;2022-10-22T07:13:20;3.85;;;2.90;;
20527;SDS011;23612;50.894;10.700;2022-10-22T07:15:51;2.38;;;1.95;;
20527;SDS011;23612;50.894;10.700;2022-10-22T07:18:18;3.28;;;1.35;;
20527;SDS011;23612;50.894;10.700;2022-10-22T07:20:44;1.88;;;1.27;;
20527;SDS011;23612;50.894;10.700;2022-10-22T07:23:10;1.63;;;1.25;;
20527;SDS011;23612;50.894;10.700;2022-10-22T07:25:36;1.85;;;1.45;;
20527;SDS011;23612;50.894;10.700;2022-10-22T07:28:01;1.73;;;1.60;;
20527;SDS011;23612;50.894;10.700;2022-10-22T07:30:27;6.00;;;1.50;;
20527;SDS011;23612;50.894;10.700;2022-10-22T07:32:52;1.20;;;1.20;;
20527;SDS011;23612;50.894;10.700;2022-10-22T07:35:18;2.00;;;1.60;;
20527;SDS011;23612;50.894;10.700;2022-10-22T07:37:44;1.40;;;1.30;;
20527;SDS011;23612;50.894;10.700;2022-10-22T07:40:09;2.55;;;1.00;;
20527;SDS011;23612;50.894;10.700;2022-10-22T07:42:35;2.55;;;0.80;;
20527;SDS011;23612;50.894;10.700;2022-10-22T07:45:01;2.15;;;0.75;;
20527;SDS011;23612;50.894;10.700;2022-10-22T07:47:26;1.00;;;0.65;;
20527;SDS011;23612;50.894;10.700;2022-10-22T07:49:52;0.82;;;0.70;;
20527;SDS011;23612;50.894;10.700;2022-10-22T07:52:17;0.50;;;0.50;;
20527;SDS011;23612;50.894;10.700;2022-10-22T07:54:43;0.70;;;0.70;;
20527;SDS011;23612;50.894;10.700;2022-10-22T07:57:08;2.03;;;1.55;;
20527;SDS011;23612;50.894;10.700;2022-10-22T07:59:34;1.75;;;1.15;;
20527;SDS011;23612;50.894;10.700;2022-10-22T08:01:59;3.03;;;1.08;;
20527;SDS011;23612;50.894;10.700;2022-10-22T08:04:25;4.32;;;0.93;;
20527;SDS011;23612;50.894;10.700;2022-10-22T08:06:50;1.00;;;0.82;;
20527;SDS011;23612;50.894;10.700;2022-10-22T08:09:16;1.27;;;0.80;;
20527;SDS011;23612;50.894;10.700;2022-10-22T08:11:41;0.98;;;0.80;;
20527;SDS011;23612;50.894;10.700;2022-10-22T08:14:07;1.98;;;1.77;;
20527;SDS011;23612;50.894;10.700;2022-10-22T08:16:33;0.90;;;0.90;;
20527;SDS011;23612;50.894;10.700;2022-10-22T08:18:58;0.50;;;0.50;;
20527;SDS011;23612;50.894;10.700;2022-10-22T08:21:24;2.83;;;0.50;;
20527;SDS011;23612;50.894;10.700;2022-10-22T08:23:50;3.33;;;1.30;;
20527;SDS011;23612;50.894;10.700;2022-10-22T08:26:16;3.58;;;1.05;;
20527;SDS011;23612;50.894;10.700;2022-10-22T08:28:42;2.15;;;1.40;;
20527;SDS011;23612;50.894;10.700;2022-10-22T08:31:07;1.45;;;0.60;;
20527;SDS011;23612;50.894;10.700;2022-10-22T08:33:34;3.42;;;0.88;;
20527;SDS011;23612;50.894;10.700;2022-10-22T08:36:00;0.68;;;0.68;;
20527;SDS011;23612;50.894;10.700;2022-10-22T08:38:25;0.65;;;0.65;;
20527;SDS011;23612;50.894;10.700;2022-10-22T08:40:52;0.63;;;0.52;;
20527;SDS011;23612;50.894;10.700;2022-10-22T08:45:49;1.30;;;0.98;;
20527;SDS011;23612;50.894;10.700;2022-10-22T08:48:53;1.30;;;1.20;;
20527;SDS011;23612;50.894;10.700;2022-10-22T08:51:22;1.10;;;1.00;;
20527;SDS011;23612;50.894;10.700;2022-10-22T08:53:53;1.05;;;0.93;;
20527;SDS011;23612;50.894;10.700;2022-10-22T08:56:42;1.27;;;1.17;;
20527;SDS011;23612;50.894;10.700;2022-10-22T08:59:45;0.98;;;0.93;;
20527;SDS011;23612;50.894;10.700;2022-10-22T09:02:15;1.95;;;0.90;;
20527;SDS011;23612;50.894;10.700;2022-10-22T09:04:46;0.57;;;0.57;;
20527;SDS011;23612;50.894;10.700;2022-10-22T09:07:20;0.80;;;0.80;;
20527;SDS011;23612;50.894;10.700;2022-10-22T09:09:47;1.63;;;1.38;;
20527;SDS011;23612;50.894;10.700;2022-10-22T09:12:16;1.10;;;0.90;;
20527;SDS011;23612;50.894;10.700;2022-10-22T09:14:42;2.67;;;1.05;;
20527;SDS011;23612;50.894;10.700;2022-10-22T09:20:05;2.70;;;1.33;;
20527;SDS011;23612;50.894;10.700;2022-10-22T09:22:45;2.08;;;1.77;;
20527;SDS011;23612;50.894;10.700;2022-10-22T09:25:20;2.90;;;1.55;;
20527;SDS011;23612;50.894;10.700;2022-10-22T09:27:53;3.65;;;2.00;;
20527;SDS011;23612;50.894;10.700;2022-10-22T09:30:24;3.22;;;1.15;;
20527;SDS011;23612;50.894;10.700;2022-10-22T09:35:32;1.75;;;1.20;;
20527;SDS011;23612;50.894;10.700;2022-10-22T09:38:01;2.53;;;1.48;;
20527;SDS011;23612;50.894;10.700;2022-10-22T09:40:31;2.50;;;1.25;;
20527;SDS011;23612;50.894;10.700;2022-10-22T09:43:27;3.92;;;1.75;;
20527;SDS011;23612;50.894;10.700;2022-10-22T09:45:59;3.22;;;1.42;;
20527;SDS011;23612;50.894;10.700;2022-10-22T09:48:38;1.77;;;1.10;;
20527;SDS011;23612;50.894;10.700;2022-10-22T09:51:23;1.75;;;1.40;;
20527;SDS011;23612;50.894;10.700;2022-10-22T09:54:00;4.88;;;2.03;;
20527;SDS011;23612;50.894;10.700;2022-10-22T09:56:40;3.15;;;1.60;;
20527;SDS011;23612;50.894;10.700;2022-10-22T09:59:15;2.40;;;1.70;;
20527;SDS011;23612;50.894;10.700;2022-10-22T10:01:43;2.63;;;1.48;;
20527;SDS011;23612;50.894;10.700;2022-10-22T10:04:10;1.45;;;1.27;;
20527;SDS011;23612;50.894;10.700;2022-10-22T10:06:38;3.22;;;1.65;;
20527;SDS011;23612;50.894;10.700;2022-10-22T10:09:16;3.13;;;1.25;;
20527;SDS011;23612;50.894;10.700;2022-10-22T10:11:58;3.55;;;1.65;;
20527;SDS011;23612;50.894;10.700;2022-10-22T10:17:59;3.35;;;1.58;;
20527;SDS011;23612;50.894;10.700;2022-10-22T10:20:58;2.17;;;1.45;;
20527;SDS011;23612;50.894;10.700;2022-10-22T10:23:55;4.53;;;1.63;;
20527;SDS011;23612;50.894;10.700;2022-10-22T10:29:13;3.03;;;1.50;;
20527;SDS011;23612;50.894;10.700;2022-10-22T10:32:05;2.60;;;1.98;;
20527;SDS011;23612;50.894;10.700;2022-10-22T10:35:54;3.33;;;1.38;;
20527;SDS011;23612;50.894;10.700;2022-10-22T10:41:47;2.78;;;1.58;;
20527;SDS011;23612;50.894;10.700;2022-10-22T10:49:37;2.92;;;2.20;;
20527;SDS011;23612;50.894;10.700;2022-10-22T10:54:42;6.13;;;2.20;;
20527;SDS011;23612;50.894;10.700;2022-10-22T11:05:24;4.70;;;2.30;;
20527;SDS011;23612;50.894;10.700;2022-10-22T11:08:17;4.82;;;2.33;;
20527;SDS011;23612;50.894;10.700;2022-10-22T11:10:46;5.07;;;2.60;;
20527;SDS011;23612;50.894;10.700;2022-10-22T11:13:44;4.00;;;2.20;;
20527;SDS011;23612;50.894;10.700;2022-10-22T11:16:27;6.85;;;2.65;;
20527;SDS011;23612;50.894;10.700;2022-10-22T11:24:40;10.85;;;2.78;;
20527;SDS011;23612;50.894;10.700;2022-10-22T11:30:03;6.07;;;2.67;;
20527;SDS011;23612;50.894;10.700;2022-10-22T11:32:35;7.68;;;2.28;;
20527;SDS011;23612;50.894;10.700;2022-10-22T11:35:02;3.25;;;2.03;;
20527;SDS011;23612;50.894;10.700;2022-10-22T11:37:32;2.70;;;1.92;;
20527;SDS011;23612;50.894;10.700;2022-10-22T11:40:02;4.25;;;2.25;;
20527;SDS011;23612;50.894;10.700;2022-10-22T11:42:34;6.18;;;2.17;;
20527;SDS011;23612;50.894;10.700;2022-10-22T11:45:22;6.00;;;2.33;;
20527;SDS011;23612;50.894;10.700;2022-10-22T11:55:46;7.35;;;1.90;;
20527;SDS011;23612;50.894;10.700;2022-10-22T12:01:15;2.45;;;1.80;;
20527;SDS011;23612;50.894;10.700;2022-10-22T12:03:52;5.20;;;1.60;;
20527;SDS011;23612;50.894;10.700;2022-10-22T12:06:51;2.55;;;1.70;;
20527;SDS011;23612;50.894;10.700;2022-10-22T12:09:22;3.38;;;1.65;;
20527;SDS011;23612;50.894;10.700;2022-10-22T12:11:53;4.80;;;1.30;;
20527;SDS011;23612;50.894;10.700;2022-10-22T12:14:26;4.65;;;1.92;;
20527;SDS011;23612;50.894;10.700;2022-10-22T12:17:15;5.10;;;1.90;;
20527;SDS011;23612;50.894;10.700;2022-10-22T12:19:44;5.18;;;1.88;;
20527;SDS011;23612;50.894;10.700;2022-10-22T12:22:29;5.10;;;1.88;;
20527;SDS011;23612;50.894;10.700;2022-10-22T12:24:59;5.10;;;1.63;;
20527;SDS011;23612;50.894;10.700;2022-10-22T12:27:33;3.92;;;1.50;;
20527;SDS011;23612;50.894;10.700;2022-10-22T12:30:02;6.30;;;1.58;;
20527;SDS011;23612;50.894;10.700;2022-10-22T12:32:46;5.70;;;1.75;;
20527;SDS011;23612;50.894;10.700;2022-10-22T12:35:18;6.93;;;1.70;;
20527;SDS011;23612;50.894;10.700;2022-10-22T12:37:48;4.25;;;1.80;;
20527;SDS011;23612;50.894;10.700;2022-10-22T12:40:22;4.30;;;1.70;;
20527;SDS011;23612;50.894;10.700;2022-10-22T12:42:50;4.38;;;1.63;;
20527;SDS011;23612;50.894;10.700;2022-10-22T12:45:17;3.47;;;1.92;;
20527;SDS011;23612;50.894;10.700;2022-10-22T12:47:44;5.50;;;1.50;;
20527;SDS011;23612;50.894;10.700;2022-10-22T12:50:18;3.08;;;1.60;;
20527;SDS011;23612;50.894;10.700;2022-10-22T12:52:46;5.55;;;1.80;;
20527;SDS011;23612;50.894;10.700;2022-10-22T12:55:19;4.30;;;2.03;;
20527;SDS011;23612;50.894;10.700;2022-10-22T12:57:49;5.75;;;2.15;;
20527;SDS011;23612;50.894;10.700;2022-10-22T13:00:23;4.13;;;1.80;;
20527;SDS011;23612;50.894;10.700;2022-10-22T13:02:51;4.63;;;1.95;;
20527;SDS011;23612;50.894;10.700;2022-10-22T13:07:50;5.07;;;2.20;;
20527;SDS011;23612;50.894;10.700;2022-10-22T13:10:19;4.38;;;2.03;;
20527;SDS011;23612;50.894;10.700;2022-10-22T13:12:57;5.30;;;1.40;;
20527;SDS011;23612;50.894;10.700;2022-10-22T13:17:59;2.15;;;1.30;;
20527;SDS011;23612;50.894;10.700;2022-10-22T13:20:52;3.95;;;1.50;;
20527;SDS011;23612;50.894;10.700;2022-10-22T13:23:22;7.75;;;1.48;;
20527;SDS011;23612;50.894;10.700;2022-10-22T13:28:38;2.67;;;1.55;;
20527;SDS011;23612;50.894;10.700;2022-10-22T13:31:10;7.53;;;1.63;;
20527;SDS011;23612;50.894;10.700;2022-10-22T13:33:49;3.22;;;1.60;;
20527;SDS011;23612;50.894;10.700;2022-10-22T13:36:17;2.00;;;1.20;;
20527;SDS011;23612;50.894;10.700;2022-10-22T13:38:43;1.83;;;1.30;;
20527;SDS011;23612;50.894;10.700;2022-10-22T13:41:17;4.78;;;1.25;;
20527;SDS011;23612;50.894;10.700;2022-10-22T13:43:43;5.05;;;2.97;;
20527;SDS011;23612;50.894;10.700;2022-10-22T13:46:09;3.63;;;2.20;;
20527;SDS011;23612;50.894;10.700;2022-10-22T13:48:35;4.25;;;2.60;;
20527;SDS011;23612;50.894;10.700;2022-10-22T13:51:01;6.10;;;1.90;;
20527;SDS011;23612;50.894;10.700;2022-10-22T13:53:26;6.80;;;4.32;;
20527;SDS011;23612;50.894;10.700;2022-10-22T13:55:53;7.53;;;2.20;;
20527;SDS011;23612;50.894;10.700;2022-10-22T13:58:19;4.53;;;3.53;;
20527;SDS011;23612;50.894;10.700;2022-10-22T14:00:49;3.72;;;1.67;;
20527;SDS011;23612;50.894;10.700;2022-10-22T14:03:20;5.88;;;1.90;;
20527;SDS011;23612;50.894;10.700;2022-10-22T14:05:48;4.10;;;1.70;;
20527;SDS011;23612;50.894;10.700;2022-10-22T14:08:16;7.35;;;2.05;;
20527;SDS011;23612;50.894;10.700;2022-10-22T14:10:43;4.25;;;1.60;;
20527;SDS011;23612;50.894;10.700;2022-10-22T14:13:10;5.38;;;4.47;;
20527;SDS011;23612;50.894;10.700;2022-10-22T14:15:40;3.55;;;2.00;;
20527;SDS011;23612;50.894;10.700;2022-10-22T14:18:07;13.43;;;7.25;;
20527;SDS011;23612;50.894;10.700;2022-10-22T14:20:37;8.93;;;3.85;;
20527;SDS011;23612;50.894;10.700;2022-10-22T14:23:18;8.05;;;3.60;;
20527;SDS011;23612;50.894;10.700;2022-10-22T14:25:45;14.90;;;6.68;;
20527;SDS011;23612;50.894;10.700;2022-10-22T14:28:11;9.68;;;6.28;;
20527;SDS011;23612;50.894;10.700;2022-10-22T14:30:37;18.15;;;9.23;;
20527;SDS011;23612;50.894;10.700;2022-10-22T14:33:08;10.18;;;6.50;;
20527;SDS011;23612;50.894;10.700;2022-10-22T14:35:41;6.72;;;2.92;;
20527;SDS011;23612;50.894;10.700;2022-10-22T14:38:06;23.48;;;11.60;;
20527;SDS011;23612;50.894;10.700;2022-10-22T14:40:32;17.30;;;6.30;;
20527;SDS011;23612;50.894;10.700;2022-10-22T14:42:57;7.15;;;2.97;;
20527;SDS011;23612;50.894;10.700;2022-10-22T14:45:25;7.07;;;2.20;;
20527;SDS011;23612;50.894;10.700;2022-10-22T14:47:51;6.55;;;3.10;;
20527;SDS011;23612;50.894;10.700;2022-10-22T14:50:19;5.82;;;2.80;;
20527;SDS011;23612;50.894;10.700;2022-10-22T14:52:45;7.43;;;2.03;;
20527;SDS011;23612;50.894;10.700;2022-10-22T14:55:12;6.38;;;2.28;;
20527;SDS011;23612;50.894;10.700;2022-10-22T14:57:39;5.72;;;2.47;;
20527;SDS011;23612;50.894;10.700;2022-10-22T15:00:07;7.75;;;2.58;;
20527;SDS011;23612;50.894;10.700;2022-10-22T15:02:35;29.10;;;17.67;;
20527;SDS011;23612;50.894;10.700;2022-10-22T15:05:01;49.42;;;24.98;;
20527;SDS011;23612;50.894;10.700;2022-10-22T15:07:26;10.82;;;3.97;;
20527;SDS011;23612;50.894;10.700;2022-10-22T15:09:52;7.53;;;3.70;;
20527;SDS011;23612;50.894;10.700;2022-10-22T15:12:18;9.88;;;2.83;;
20527;SDS011;23612;50.894;10.700;2022-10-22T15:14:47;9.57;;;6.18;;
20527;SDS011;23612;50.894;10.700;2022-10-22T15:17:13;11.20;;;4.38;;
20527;SDS011;23612;50.894;10.700;2022-10-22T15:19:39;11.25;;;6.72;;
20527;SDS011;23612;50.894;10.700;2022-10-22T15:22:05;11.55;;;6.72;;
20527;SDS011;23612;50.894;10.700;2022-10-22T15:24:31;21.52;;;10.20;;
20527;SDS011;23612;50.894;10.700;2022-10-22T15:26:57;20.33;;;15.88;;
20527;SDS011;23612;50.894;10.700;2022-10-22T15:29:22;6.10;;;4.07;;
20527;SDS011;23612;50.894;10.700;2022-10-22T15:31:49;7.47;;;4.03;;
20527;SDS011;23612;50.894;10.700;2022-10-22T15:34:26;10.15;;;5.25;;
20527;SDS011;23612;50.894;10.700;2022-10-22T15:36:57;12.25;;;7.70;;
20527;SDS011;23612;50.894;10.700;2022-10-22T15:39:24;7.80;;;3.72;;
20527;SDS011;23612;50.894;10.700;2022-10-22T15:41:51;13.88;;;6.03;;
20527;SDS011;23612;50.894;10.700;2022-10-22T15:44:20;11.07;;;5.30;;
20527;SDS011;23612;50.894;10.700;2022-10-22T15:46:48;12.88;;;4.10;;
20527;SDS011;23612;50.894;10.700;2022-10-22T15:49:14;14.63;;;4.35;;
20527;SDS011;23612;50.894;10.700;2022-10-22T15:51:41;11.32;;;6.72;;
20527;SDS011;23612;50.894;10.700;2022-10-22T15:54:09;9.43;;;4.78;;
20527;SDS011;23612;50.894;10.700;2022-10-22T15:56:41;14.60;;;9.23;;
20527;SDS011;23612;50.894;10.700;2022-10-22T15:59:08;9.10;;;6.60;;
20527;SDS011;23612;50.894;10.700;2022-10-22T16:01:35;10.57;;;3.05;;
20527;SDS011;23612;50.894;10.700;2022-10-22T16:04:01;6.72;;;3.42;;
20527;SDS011;23612;50.894;10.700;2022-10-22T16:06:28;7.35;;;4.65;;
20527;SDS011;23612;50.894;10.700;2022-10-22T16:08:58;8.25;;;4.63;;
20527;SDS011;23612;50.894;10.700;2022-10-22T16:11:26;8.35;;;6.32;;
20527;SDS011;23612;50.894;10.700;2022-10-22T16:13:53;14.30;;;7.35;;
20527;SDS011;23612;50.894;10.700;2022-10-22T16:16:21;9.20;;;6.15;;
20527;SDS011;23612;50.894;10.700;2022-10-22T16:18:47;7.35;;;5.78;;